Flight Track Log - Related Links

Times and Time Zones

All times are in EDT time to prevent confusion due to time zone crossing. See the SWA2130 flight status page for this flight to view local times or setup timezone preferences in your user account.

Time Position Orientation Groundspeed Altitude Reporting Facility
EDT Latitude Longitude Course Direction KTS MPH feet Rate Location/Type
Fri 07:00:27 PM 37.6333 -122.3667 357° North 156 180 800  Level Northern Cal TRACON
Fri 07:01:14 PM 37.6650 -122.3689 357° North 186 214 2,200 2,477 Climbing Oakland Center
Fri 07:02:16 PM 37.6781 -122.4233 287° West 243 280 5,300 3,707 Climbing Oakland Center
Fri 07:03:17 PM 37.5967 -122.4253 181° South 279 321 9,800 3,659 Climbing Oakland Center
Fri 07:04:19 PM 37.5178 -122.3803 156° South 305 351 12,800 3,122 Climbing Oakland Center
Fri 07:05:20 PM 37.4386 -122.3083 144° Southeast 345 397 16,200 3,098 Climbing Oakland Center
Fri 07:06:21 PM 37.3708 -122.2128 132° Southeast 364 419 19,100 2,829 Climbing Oakland Center
Fri 07:07:23 PM 37.2956 -122.1139 134° Southeast 384 442 22,000 2,634 Climbing Oakland Center
Fri 07:08:24 PM 37.2164 -122.0092 133° Southeast 407 468 24,500 2,213 Climbing Oakland Center
Fri 07:09:25 PM 37.1336 -121.8983 133° Southeast 430 495 26,500 1,854 Climbing Oakland Center
Fri 07:10:27 PM 37.0444 -121.7817 134° Southeast 458 527 28,300 2,098 Climbing Oakland Center
Fri 07:11:28 PM 36.9347 -121.6375 134° Southeast 478 550 30,800 2,244 Climbing Oakland Center
Fri 07:12:30 PM 36.8411 -121.5136 133° Southeast 489 563 32,900 2,049 Climbing Oakland Center
Fri 07:13:31 PM 36.7553 -121.4014 134° Southeast 481 554 35,000 1,659 Climbing Oakland Center
Fri 07:14:33 PM 36.6625 -121.2811 134° Southeast 479 551 36,300 1,268 Climbing Oakland Center
Fri 07:15:34 PM 36.5692 -121.1567 133° Southeast 489 563 37,600 1,328 Climbing Oakland Center
Fri 07:16:35 PM 36.4744 -121.0344 134° Southeast 492 566 39,000 683 Climbing Oakland Center
Fri 07:17:37 PM 36.3633 -120.8906 134° Southeast 482 555 39,000  Level Oakland Center
Fri 07:18:38 PM 36.2711 -120.7711 134° Southeast 478 550 39,000  Level Oakland Center
Fri 07:19:40 PM 36.1783 -120.6522 134° Southeast 479 551 39,000  Level Oakland Center
Fri 07:20:41 PM 36.0853 -120.5339 134° Southeast 478 550 39,000  Level Oakland Center
Fri 07:21:43 PM 35.9931 -120.4158 134° Southeast 475 547 39,000  Level Oakland Center
Fri 07:22:44 PM 35.9000 -120.2975 134° Southeast 475 547 39,000  Level Oakland Center
Fri 07:23:46 PM 35.8061 -120.1792 134° Southeast 478 550 39,000  Level Oakland Center
Fri 07:24:47 PM 35.7131 -120.0608 134° Southeast 477 549 39,000  Level Oakland Center
Fri 07:25:48 PM 35.6133 -119.9481 137° Southeast 482 555 39,000  Level Oakland Center
Fri 07:26:50 PM 35.4997 -119.8511 145° Southeast 490 564 39,000  Level Oakland Center
Fri 07:27:51 PM 35.3861 -119.7522 145° Southeast 495 570 39,000 -871 Level Oakland Center
Fri 07:28:54 PM 35.2511 -119.6372 145° Southeast 490 564 37,200 -2,256 Descending Los Angeles Center
Fri 07:29:56 PM 35.1392 -119.5408 145° Southeast 491 565 34,300 -2,903 Descending Los Angeles Center
Fri 07:30:58 PM 35.0264 -119.4453 145° Southeast 492 566 31,200 -2,710 Descending Los Angeles Center
Fri 07:32:00 PM 34.9153 -119.3511 145° Southeast 488 562 28,700 -2,323 Descending Los Angeles Center
Fri 07:33:02 PM 34.8078 -119.2594 145° Southeast 475 547 26,400 -2,226 Descending Los Angeles Center
Fri 07:34:04 PM 34.7050 -119.1719 145° Southeast 455 524 24,100 -2,371 Descending Los Angeles Center
Fri 07:35:06 PM 34.5881 -119.0767 146° Southeast 428 493 21,500 -2,323 Descending Los Angeles Center
Fri 07:36:08 PM 34.4956 -118.9969 145° Southeast 404 465 19,300 -2,032 Descending Los Angeles Center
Fri 07:37:10 PM 34.4042 -118.9217 146° Southeast 396 456 17,300 -2,064 Descending Los Angeles Center
Fri 07:38:13 PM 34.3103 -118.8642 153° Southeast 377 434 15,000 -2,112 Descending Los Angeles Center
Fri 07:39:15 PM 34.2100 -118.8281 163° South 376 433 12,900 -1,935 Descending Los Angeles Center
Fri 07:40:17 PM 34.0967 -118.7850 163° South 358 412 11,000 -1,306 Descending Los Angeles Center
Fri 07:41:19 PM 34.0347 -118.7217 140° Southeast 281 323 10,200 -629 Descending Los Angeles Center
Fri 07:42:21 PM 34.0272 -118.6400 96° East 241 277 9,700 -726 Descending Los Angeles Center
Fri 07:43:23 PM 34.0203 -118.5625 96° East 231 266 8,700 -1,065 Descending Los Angeles Center
Fri 07:44:25 PM 34.0125 -118.4808 97° East 227 261 7,500 -1,355 Descending Los Angeles Center
Fri 07:45:27 PM 34.0114 -118.4169 91° East 222 255 5,900 -1,597 Descending Los Angeles Center
Fri 07:46:29 PM 34.0192 -118.3239 84° East 227 261 4,200 -1,355 Descending Los Angeles Center
Fri 07:47:31 PM 33.9989 -118.2711 115° Southeast 209 241 3,100 -1,113 Descending Los Angeles Center
Fri 07:48:33 PM 33.9650 -118.2997 215° Southwest 179 206 1,900 -968 Descending Los Angeles Center
Fri 07:49:35 PM 33.9578 -118.3436 259° West 153 176 1,100 -672 Descending Los Angeles Center
Fri 07:50:38 PM 33.9547 -118.3844 265° West 134 154 500 -432 Descending Los Angeles Center
Fri 07:51:40 PM 33.9489 -118.4322 262° West 131 151 200 -290 Descending Los Angeles Center
Fri 07:53:00 PM 33.9425 -118.4081 90° East  Level Estimated

Login

Don't have an account? Register now (free) for customized features, flight alerts, and more!